Time;durP1;ratioP1;P1;durP2;ratioP2;P2;SDS_P1;SDS_P2;PMS_P1;PMS_P2;Temp;Humidity;BMP_temperature;BMP_pressure;BME280_temperature;BME280_humidity;BME280_pressure;Samples;Min_cycle;Max_cycle;Signal;HPM_P1;HPM_P2
2023/08/13 00:01:02;;;;;;;7.23;4.90;;;;;;;;;;746122;184;919963;-67
2023/08/13 00:03:27;;;;;;;8.40;6.67;;;;;;;;;;748507;185;816954;-67
2023/08/13 00:05:53;;;;;;;8.90;6.10;;;;;;;;;;736669;188;913231;-68
2023/08/13 00:08:18;;;;;;;6.07;4.93;;;;;;;;;;746457;184;844283;-61
2023/08/13 00:10:44;;;;;;;8.27;5.93;;;;;;;;;;753868;184;919366;-61
2023/08/13 00:13:10;;;;;;;11.70;5.83;;;;;;;;;;751514;185;915228;-62
2023/08/13 00:15:36;;;;;;;8.17;6.03;;;;;;;;;;752516;183;1021625;-61
2023/08/13 00:18:02;;;;;;;9.90;6.60;;;;;;;;;;751430;184;918104;-69
2023/08/13 00:20:28;;;;;;;12.33;5.70;;;;;;;;;;746575;184;918159;-61
2023/08/13 00:22:53;;;;;;;7.97;6.27;;;;;;;;;;743704;184;917173;-68
2023/08/13 00:25:21;;;;;;;14.93;5.90;;;;;;;;;;745769;184;920410;-68
2023/08/13 00:27:45;;;;;;;6.57;5.80;;;;;;;;;;751880;184;919402;-68
2023/08/13 00:30:11;;;;;;;7.03;6.33;;;;;;;;;;747986;184;920985;-68
2023/08/13 00:32:37;;;;;;;12.43;6.93;;;;;;;;;;743607;184;919118;-66
2023/08/13 00:35:03;;;;;;;8.20;6.13;;;;;;;;;;750771;184;858768;-65
2023/08/13 00:37:29;;;;;;;7.50;6.20;;;;;;;;;;745366;184;932759;-66
2023/08/13 00:39:55;;;;;;;5.77;5.17;;;;;;;;;;750098;183;919703;-66
2023/08/13 00:42:20;;;;;;;7.77;5.43;;;;;;;;;;750993;185;919087;-67
2023/08/13 00:44:46;;;;;;;16.27;5.87;;;;;;;;;;739893;187;935951;-66
2023/08/13 00:47:12;;;;;;;7.80;6.30;;;;;;;;;;732479;189;918363;-65
2023/08/13 00:49:38;;;;;;;9.20;5.90;;;;;;;;;;735837;189;919285;-66
2023/08/13 00:52:04;;;;;;;6.23;5.53;;;;;;;;;;739230;188;923779;-66
2023/08/13 00:54:30;;;;;;;7.30;5.40;;;;;;;;;;727675;188;817146;-66
2023/08/13 00:56:56;;;;;;;7.25;5.75;;;;;;;;;;725068;190;918713;-68
2023/08/13 00:59:21;;;;;;;8.40;6.30;;;;;;;;;;744264;185;919604;-66
2023/08/13 01:01:47;;;;;;;11.07;6.77;;;;;;;;;;732142;189;919055;-60
2023/08/13 01:04:13;;;;;;;6.87;4.53;;;;;;;;;;741879;186;923700;-57
2023/08/13 01:06:40;;;;;;;9.20;5.50;;;;;;;;;;746487;188;918786;-59
2023/08/13 01:09:07;;;;;;;6.67;5.30;;;;;;;;;;740506;184;919472;-59
2023/08/13 01:11:52;;;;;;;7.80;5.87;;;;;;;;;;740163;186;916290;-59
2023/08/13 01:14:21;;;;;;;14.87;6.30;;;;;;;;;;737409;185;917132;-61
2023/08/13 01:16:47;;;;;;;6.10;5.50;;;;;;;;;;749949;184;918065;-67
2023/08/13 01:19:12;;;;;;;10.50;6.00;;;;;;;;;;752159;185;918706;-68
2023/08/13 01:21:38;;;;;;;8.67;5.80;;;;;;;;;;747989;185;942730;-61
2023/08/13 01:24:04;;;;;;;10.73;5.80;;;;;;;;;;749853;184;919333;-68
2023/08/13 01:26:30;;;;;;;6.53;5.20;;;;;;;;;;743066;185;919308;-68
2023/08/13 01:28:57;;;;;;;7.80;5.93;;;;;;;;;;746295;184;919190;-61
2023/08/13 01:31:23;;;;;;;5.90;4.83;;;;;;;;;;746081;181;920727;-68
2023/08/13 01:33:49;;;;;;;9.73;6.60;;;;;;;;;;743081;184;915251;-60
2023/08/13 01:36:16;;;;;;;7.70;6.90;;;;;;;;;;737472;185;819253;-69
2023/08/13 01:38:40;;;;;;;5.73;5.13;;;;;;;;;;738517;186;919463;-68
2023/08/13 01:41:06;;;;;;;6.43;5.80;;;;;;;;;;740152;187;921414;-68
2023/08/13 01:43:32;;;;;;;6.97;5.53;;;;;;;;;;754777;184;915590;-68
2023/08/13 01:45:58;;;;;;;7.20;5.90;;;;;;;;;;744072;184;914267;-61
2023/08/13 01:48:24;;;;;;;8.67;6.07;;;;;;;;;;744043;184;919496;-61
2023/08/13 01:50:50;;;;;;;6.40;5.50;;;;;;;;;;751029;184;918347;-61
2023/08/13 01:53:15;;;;;;;11.20;5.43;;;;;;;;;;743151;184;920447;-62
2023/08/13 01:55:41;;;;;;;6.80;4.97;;;;;;;;;;743602;184;919271;-69
2023/08/13 01:58:09;;;;;;;7.60;5.60;;;;;;;;;;748165;183;915445;-62
2023/08/13 02:00:33;;;;;;;12.23;5.37;;;;;;;;;;750065;183;816858;-69
2023/08/13 02:02:59;;;;;;;8.07;5.40;;;;;;;;;;736223;187;918246;-69
2023/08/13 02:05:25;;;;;;;6.30;4.78;;;;;;;;;;736419;187;919109;-68
2023/08/13 02:07:50;;;;;;;10.37;7.63;;;;;;;;;;736309;187;914428;-60
2023/08/13 02:10:16;;;;;;;6.30;5.30;;;;;;;;;;740106;185;919480;-61
2023/08/13 02:12:42;;;;;;;7.23;5.30;;;;;;;;;;742305;185;918390;-68
2023/08/13 02:15:08;;;;;;;6.17;5.20;;;;;;;;;;747337;185;919639;-68
2023/08/13 02:17:34;;;;;;;8.97;5.53;;;;;;;;;;747274;183;917661;-61
2023/08/13 02:20:00;;;;;;;6.57;5.43;;;;;;;;;;748644;185;941651;-68
2023/08/13 02:22:26;;;;;;;9.67;7.23;;;;;;;;;;757245;184;864999;-69
2023/08/13 02:24:52;;;;;;;8.50;6.93;;;;;;;;;;747268;185;904184;-60
2023/08/13 02:27:17;;;;;;;7.70;6.20;;;;;;;;;;745803;185;919053;-68
2023/08/13 02:29:43;;;;;;;8.50;6.33;;;;;;;;;;743896;188;918384;-61
2023/08/13 02:32:09;;;;;;;6.90;5.77;;;;;;;;;;742052;186;918155;-61
2023/08/13 02:34:35;;;;;;;8.90;6.70;;;;;;;;;;732834;186;938583;-60
2023/08/13 02:37:01;;;;;;;10.50;6.07;;;;;;;;;;737638;188;919518;-61
2023/08/13 02:39:27;;;;;;;10.38;7.15;;;;;;;;;;743421;186;919682;-61
2023/08/13 02:41:52;;;;;;;8.37;6.60;;;;;;;;;;742704;184;918972;-61
2023/08/13 02:44:18;;;;;;;8.27;5.90;;;;;;;;;;745290;185;919902;-61
2023/08/13 02:46:46;;;;;;;9.23;6.53;;;;;;;;;;756934;185;1020571;-68
2023/08/13 02:49:10;;;;;;;8.13;6.27;;;;;;;;;;755180;183;919481;-68
2023/08/13 02:51:36;;;;;;;6.87;6.10;;;;;;;;;;755928;184;919531;-61
2023/08/13 02:54:02;;;;;;;7.43;6.50;;;;;;;;;;745845;184;918382;-61
2023/08/13 02:56:27;;;;;;;8.63;6.27;;;;;;;;;;744691;184;919424;-68
2023/08/13 02:58:53;;;;;;;7.60;6.80;;;;;;;;;;746300;184;919568;-60
2023/08/13 03:01:19;;;;;;;9.20;7.60;;;;;;;;;;745427;185;918446;-62
2023/08/13 03:03:48;;;;;;;7.60;6.90;;;;;;;;;;751760;186;713361;-67
2023/08/13 03:06:11;;;;;;;6.47;5.77;;;;;;;;;;746980;186;1024974;-67
2023/08/13 03:08:37;;;;;;;11.70;7.43;;;;;;;;;;744400;184;918884;-68
2023/08/13 03:11:03;;;;;;;9.25;6.70;;;;;;;;;;749790;185;813212;-60
2023/08/13 03:13:28;;;;;;;8.23;7.00;;;;;;;;;;744122;185;916644;-68
2023/08/13 03:15:54;;;;;;;7.05;6.35;;;;;;;;;;742888;184;918722;-60
2023/08/13 03:18:21;;;;;;;8.32;6.78;;;;;;;;;;747467;186;920416;-68
2023/08/13 03:20:46;;;;;;;7.00;6.30;;;;;;;;;;743388;186;918336;-68
2023/08/13 03:23:12;;;;;;;9.37;6.23;;;;;;;;;;746239;184;918134;-68
2023/08/13 03:25:38;;;;;;;11.97;6.90;;;;;;;;;;746324;184;915881;-67
2023/08/13 03:28:04;;;;;;;7.10;5.77;;;;;;;;;;748974;188;942577;-61
2023/08/13 03:30:30;;;;;;;8.20;6.53;;;;;;;;;;744216;184;919434;-68
2023/08/13 03:32:56;;;;;;;7.37;6.37;;;;;;;;;;751129;184;816821;-60
2023/08/13 03:35:21;;;;;;;9.23;7.33;;;;;;;;;;756469;184;815948;-68
2023/08/13 03:37:47;;;;;;;11.00;6.97;;;;;;;;;;727595;189;818819;-60
2023/08/13 03:40:13;;;;;;;9.20;6.43;;;;;;;;;;733633;187;818469;-61
2023/08/13 03:42:39;;;;;;;8.07;6.50;;;;;;;;;;734814;186;866616;-68
2023/08/13 03:45:05;;;;;;;12.43;6.30;;;;;;;;;;746547;184;918395;-61
2023/08/13 03:47:31;;;;;;;10.57;6.87;;;;;;;;;;746396;185;917227;-61
2023/08/13 03:49:57;;;;;;;9.80;6.87;;;;;;;;;;744712;184;919835;-61
2023/08/13 03:52:23;;;;;;;9.43;6.60;;;;;;;;;;749684;186;885771;-60
2023/08/13 03:54:49;;;;;;;12.23;6.93;;;;;;;;;;745264;184;917823;-67
2023/08/13 03:57:14;;;;;;;7.67;6.50;;;;;;;;;;746812;185;1124136;-67
2023/08/13 03:59:40;;;;;;;14.30;7.50;;;;;;;;;;751987;185;924555;-68
2023/08/13 04:02:06;;;;;;;9.33;6.20;;;;;;;;;;751101;185;921960;-67
2023/08/13 04:04:32;;;;;;;11.13;6.20;;;;;;;;;;740906;189;918779;-61
2023/08/13 04:06:58;;;;;;;6.53;5.53;;;;;;;;;;745954;186;949066;-60
2023/08/13 04:09:24;;;;;;;8.40;6.40;;;;;;;;;;741230;188;919611;-60
2023/08/13 04:11:50;;;;;;;9.90;5.80;;;;;;;;;;734189;187;920155;-61
2023/08/13 04:14:15;;;;;;;9.50;6.77;;;;;;;;;;738042;187;918520;-59
2023/08/13 04:16:41;;;;;;;6.12;5.53;;;;;;;;;;733894;188;918869;-68
2023/08/13 04:19:07;;;;;;;7.73;6.23;;;;;;;;;;731561;187;919892;-60
2023/08/13 04:21:33;;;;;;;8.10;5.17;;;;;;;;;;741077;187;826018;-61
2023/08/13 04:23:59;;;;;;;7.73;5.97;;;;;;;;;;742509;186;913530;-61
2023/08/13 04:26:25;;;;;;;7.90;6.80;;;;;;;;;;738255;188;916308;-60
2023/08/13 04:28:50;;;;;;;7.63;6.73;;;;;;;;;;732700;187;923294;-61
2023/08/13 04:31:18;;;;;;;9.33;5.90;;;;;;;;;;745784;186;904138;-68
2023/08/13 04:33:42;;;;;;;8.20;7.13;;;;;;;;;;738023;187;919093;-67
2023/08/13 04:36:08;;;;;;;6.10;5.47;;;;;;;;;;745958;184;823736;-68
2023/08/13 04:38:34;;;;;;;8.17;6.27;;;;;;;;;;748101;185;913404;-60
2023/08/13 04:41:00;;;;;;;8.33;5.40;;;;;;;;;;745927;184;845552;-61
2023/08/13 04:43:26;;;;;;;11.10;6.07;;;;;;;;;;745839;184;919616;-61
2023/08/13 04:45:52;;;;;;;7.93;6.50;;;;;;;;;;747990;184;918952;-61
2023/08/13 04:48:18;;;;;;;10.57;5.53;;;;;;;;;;749920;184;917612;-60
2023/08/13 04:50:44;;;;;;;8.57;5.90;;;;;;;;;;744249;184;1021631;-68
2023/08/13 04:53:10;;;;;;;10.80;6.35;;;;;;;;;;746062;184;922558;-61
2023/08/13 04:55:35;;;;;;;6.60;5.90;;;;;;;;;;753093;184;852214;-71
2023/08/13 04:58:01;;;;;;;7.07;5.53;;;;;;;;;;750002;183;920780;-61
2023/08/13 05:00:27;;;;;;;7.30;6.10;;;;;;;;;;750593;184;918871;-61
2023/08/13 05:02:53;;;;;;;16.73;6.00;;;;;;;;;;747073;186;912297;-69
2023/08/13 05:05:19;;;;;;;6.50;5.45;;;;;;;;;;745813;184;925302;-60
2023/08/13 05:07:45;;;;;;;6.30;5.40;;;;;;;;;;745129;184;909144;-61
2023/08/13 05:10:11;;;;;;;8.00;5.47;;;;;;;;;;747958;185;816520;-61
2023/08/13 05:12:36;;;;;;;7.70;5.60;;;;;;;;;;752662;184;817757;-68
2023/08/13 05:15:03;;;;;;;7.00;5.90;;;;;;;;;;747033;185;917852;-68
2023/08/13 05:17:28;;;;;;;7.03;4.93;;;;;;;;;;748729;184;909413;-61
2023/08/13 05:19:54;;;;;;;6.30;5.47;;;;;;;;;;751232;184;815365;-68
2023/08/13 05:22:20;;;;;;;7.20;6.30;;;;;;;;;;746422;184;918369;-60
2023/08/13 05:24:47;;;;;;;8.00;6.35;;;;;;;;;;743901;185;919664;-61
2023/08/13 05:27:12;;;;;;;12.00;6.73;;;;;;;;;;747561;184;1003751;-62
2023/08/13 05:29:38;;;;;;;8.60;6.40;;;;;;;;;;745790;184;917153;-60
2023/08/13 05:32:04;;;;;;;7.00;5.77;;;;;;;;;;744076;184;941341;-68
2023/08/13 05:34:30;;;;;;;8.10;6.10;;;;;;;;;;748081;184;918339;-68
2023/08/13 05:36:55;;;;;;;12.20;6.17;;;;;;;;;;743538;186;919431;-61
2023/08/13 05:39:22;;;;;;;5.37;4.83;;;;;;;;;;740551;184;922077;-68
2023/08/13 05:41:47;;;;;;;7.00;5.13;;;;;;;;;;748466;185;916232;-68
2023/08/13 05:44:13;;;;;;;6.00;4.80;;;;;;;;;;751085;185;915614;-62
2023/08/13 05:46:39;;;;;;;9.10;5.20;;;;;;;;;;744913;184;922503;-68
2023/08/13 05:49:05;;;;;;;7.50;5.47;;;;;;;;;;745751;184;919319;-62
2023/08/13 05:51:30;;;;;;;6.90;4.80;;;;;;;;;;750038;185;921488;-68
2023/08/13 05:53:56;;;;;;;6.00;5.00;;;;;;;;;;742462;184;918587;-68
2023/08/13 05:56:22;;;;;;;18.13;6.23;;;;;;;;;;744651;184;918300;-68
2023/08/13 05:58:48;;;;;;;8.48;6.03;;;;;;;;;;747280;184;817059;-68
2023/08/13 06:01:14;;;;;;;10.40;6.40;;;;;;;;;;753748;184;933595;-70
2023/08/13 06:03:40;;;;;;;13.70;6.47;;;;;;;;;;745952;184;920447;-69
2023/08/13 06:06:06;;;;;;;13.52;6.25;;;;;;;;;;746570;184;835270;-69
2023/08/13 06:08:31;;;;;;;8.50;5.50;;;;;;;;;;751909;185;923071;-61
2023/08/13 06:10:57;;;;;;;8.97;5.70;;;;;;;;;;749833;185;919630;-62
2023/08/13 06:13:23;;;;;;;6.73;4.80;;;;;;;;;;740762;186;918872;-62
2023/08/13 06:15:49;;;;;;;9.23;4.73;;;;;;;;;;738789;186;930570;-61
2023/08/13 06:18:15;;;;;;;7.93;5.10;;;;;;;;;;746428;184;915279;-61
2023/08/13 06:20:41;;;;;;;5.83;4.40;;;;;;;;;;748978;184;923268;-62
2023/08/13 06:23:07;;;;;;;6.20;4.25;;;;;;;;;;743855;188;874063;-62
2023/08/13 06:25:33;;;;;;;8.40;5.23;;;;;;;;;;744604;184;955595;-69
2023/08/13 06:27:58;;;;;;;5.93;4.20;;;;;;;;;;746725;184;877654;-61
2023/08/13 06:30:24;;;;;;;5.00;4.50;;;;;;;;;;743099;185;919576;-69
2023/08/13 06:32:50;;;;;;;5.40;3.93;;;;;;;;;;752735;184;701773;-69
2023/08/13 06:35:16;;;;;;;7.47;4.75;;;;;;;;;;746903;184;919715;-61
2023/08/13 06:37:42;;;;;;;6.27;4.40;;;;;;;;;;741576;186;917390;-62
2023/08/13 06:40:09;;;;;;;5.43;4.70;;;;;;;;;;754728;185;921183;-68
2023/08/13 06:42:34;;;;;;;6.60;4.50;;;;;;;;;;746574;186;918576;-63
2023/08/13 06:45:00;;;;;;;7.97;4.00;;;;;;;;;;747656;184;918366;-69
2023/08/13 06:47:26;;;;;;;7.77;4.80;;;;;;;;;;751729;185;916713;-62
2023/08/13 06:49:52;;;;;;;8.00;4.47;;;;;;;;;;745572;184;917065;-62
2023/08/13 06:52:18;;;;;;;5.47;4.00;;;;;;;;;;746810;184;918273;-70
2023/08/13 06:54:44;;;;;;;5.93;3.60;;;;;;;;;;745357;184;921556;-69
2023/08/13 06:57:10;;;;;;;7.70;4.10;;;;;;;;;;747825;185;912482;-62
2023/08/13 06:59:36;;;;;;;5.83;3.40;;;;;;;;;;743893;185;925212;-70
2023/08/13 07:02:01;;;;;;;5.13;3.30;;;;;;;;;;746216;185;911413;-69
2023/08/13 07:04:28;;;;;;;4.10;3.23;;;;;;;;;;752347;184;915603;-70
2023/08/13 07:06:53;;;;;;;8.20;4.27;;;;;;;;;;745092;185;920309;-70
2023/08/13 07:09:19;;;;;;;4.50;3.50;;;;;;;;;;747703;185;922699;-71
2023/08/13 07:11:45;;;;;;;5.00;3.70;;;;;;;;;;752535;184;913441;-62
2023/08/13 07:14:11;;;;;;;5.80;4.17;;;;;;;;;;746904;184;912792;-69
2023/08/13 07:16:36;;;;;;;6.00;3.77;;;;;;;;;;747032;185;919548;-63
2023/08/13 07:19:02;;;;;;;15.00;3.93;;;;;;;;;;743955;184;919088;-69
2023/08/13 07:21:28;;;;;;;6.03;3.00;;;;;;;;;;748932;185;940317;-64
2023/08/13 07:23:54;;;;;;;8.10;3.57;;;;;;;;;;746909;184;816374;-63
2023/08/13 07:26:20;;;;;;;4.90;3.70;;;;;;;;;;745743;185;817936;-70
2023/08/13 07:28:46;;;;;;;5.07;3.70;;;;;;;;;;753118;185;816752;-71
2023/08/13 07:31:12;;;;;;;7.90;4.30;;;;;;;;;;750124;184;818479;-71
2023/08/13 07:33:37;;;;;;;8.85;4.03;;;;;;;;;;746895;183;919501;-71
2023/08/13 07:36:03;;;;;;;6.50;3.57;;;;;;;;;;747720;186;817307;-61
2023/08/13 07:38:29;;;;;;;5.83;3.43;;;;;;;;;;738116;188;919328;-71
2023/08/13 07:40:57;;;;;;;6.40;4.05;;;;;;;;;;737130;189;918510;-64
2023/08/13 07:43:23;;;;;;;6.20;3.57;;;;;;;;;;743888;185;919363;-71
2023/08/13 07:45:48;;;;;;;5.83;3.60;;;;;;;;;;744091;185;908010;-64
2023/08/13 07:48:14;;;;;;;6.47;4.80;;;;;;;;;;743989;185;855296;-63
2023/08/13 07:50:40;;;;;;;3.77;3.37;;;;;;;;;;750388;185;791063;-65
2023/08/13 07:53:06;;;;;;;4.57;3.47;;;;;;;;;;762476;183;717157;-64
2023/08/13 07:55:32;;;;;;;5.00;3.90;;;;;;;;;;747737;184;632999;-72
2023/08/13 07:57:58;;;;;;;6.20;3.60;;;;;;;;;;748401;184;800800;-64
2023/08/13 08:00:24;;;;;;;5.83;3.60;;;;;;;;;;748716;184;918730;-65
2023/08/13 08:02:49;;;;;;;5.70;3.67;;;;;;;;;;748253;185;849481;-73
2023/08/13 08:05:16;;;;;;;3.87;3.43;;;;;;;;;;750432;185;633416;-73
2023/08/13 08:07:41;;;;;;;4.00;2.97;;;;;;;;;;751721;184;621417;-74
2023/08/13 08:10:07;;;;;;;4.87;3.30;;;;;;;;;;742802;184;618781;-65
2023/08/13 08:12:33;;;;;;;6.20;2.80;;;;;;;;;;752151;184;626047;-73
2023/08/13 08:14:59;;;;;;;8.20;3.37;;;;;;;;;;747008;184;618628;-63
2023/08/13 08:17:25;;;;;;;7.73;3.43;;;;;;;;;;754511;185;621080;-74
2023/08/13 08:19:50;;;;;;;6.33;3.40;;;;;;;;;;752240;184;641510;-64
2023/08/13 08:22:16;;;;;;;4.90;3.23;;;;;;;;;;750541;184;818146;-72
2023/08/13 08:24:42;;;;;;;6.03;3.03;;;;;;;;;;750219;184;919469;-64
2023/08/13 08:27:08;;;;;;;6.00;3.35;;;;;;;;;;746806;184;919284;-71
2023/08/13 08:29:34;;;;;;;4.43;3.03;;;;;;;;;;745084;185;918348;-71
2023/08/13 08:32:00;;;;;;;3.97;3.10;;;;;;;;;;752919;184;920066;-64
2023/08/13 08:34:26;;;;;;;5.37;3.13;;;;;;;;;;743544;185;919740;-65
2023/08/13 08:36:51;;;;;;;4.68;2.83;;;;;;;;;;745515;185;920831;-64
2023/08/13 08:39:18;;;;;;;6.17;3.80;;;;;;;;;;745667;186;917741;-64
2023/08/13 08:41:43;;;;;;;6.93;3.90;;;;;;;;;;744566;186;918616;-63
2023/08/13 08:44:09;;;;;;;8.73;3.20;;;;;;;;;;749291;185;622039;-73
2023/08/13 08:46:35;;;;;;;4.80;3.33;;;;;;;;;;748842;184;632107;-65
2023/08/13 08:49:00;;;;;;;5.83;3.40;;;;;;;;;;751216;184;623423;-64
2023/08/13 08:51:26;;;;;;;4.60;3.80;;;;;;;;;;749210;184;629658;-73
2023/08/13 08:53:52;;;;;;;8.43;3.75;;;;;;;;;;747247;184;919411;-64
2023/08/13 08:56:18;;;;;;;4.83;3.33;;;;;;;;;;751128;185;815915;-73
2023/08/13 08:58:44;;;;;;;5.37;4.23;;;;;;;;;;745525;184;920853;-64
2023/08/13 09:01:10;;;;;;;5.67;3.87;;;;;;;;;;739592;186;918187;-64
2023/08/13 09:03:36;;;;;;;5.13;3.00;;;;;;;;;;752771;184;922841;-72
2023/08/13 09:06:02;;;;;;;6.20;3.70;;;;;;;;;;740972;184;922628;-73
2023/08/13 09:08:28;;;;;;;10.80;3.07;;;;;;;;;;729554;186;920872;-66
2023/08/13 09:10:53;;;;;;;5.35;3.20;;;;;;;;;;733720;186;919878;-71
2023/08/13 09:13:19;;;;;;;5.43;3.43;;;;;;;;;;743671;186;918661;-63
2023/08/13 09:15:48;;;;;;;5.93;3.23;;;;;;;;;;744320;186;917359;-72
2023/08/13 09:18:14;;;;;;;4.57;3.40;;;;;;;;;;739335;188;826431;-63
2023/08/13 09:20:41;;;;;;;11.33;4.10;;;;;;;;;;747168;186;919800;-73
2023/08/13 09:23:07;;;;;;;4.63;3.80;;;;;;;;;;741134;186;915868;-72
2023/08/13 09:25:33;;;;;;;7.70;3.37;;;;;;;;;;741060;187;914272;-64
2023/08/13 09:27:59;;;;;;;5.97;3.70;;;;;;;;;;741332;186;914971;-70
2023/08/13 09:30:30;;;;;;;4.87;3.00;;;;;;;;;;749459;184;913581;-73
2023/08/13 09:32:57;;;;;;;6.93;4.47;;;;;;;;;;744230;186;940827;-72
2023/08/13 09:35:23;;;;;;;5.40;3.00;;;;;;;;;;742318;186;920843;-63
2023/08/13 09:37:49;;;;;;;4.97;3.40;;;;;;;;;;745552;188;918817;-72
2023/08/13 09:40:14;;;;;;;6.23;3.00;;;;;;;;;;747819;184;919890;-73
2023/08/13 09:42:40;;;;;;;6.80;3.07;;;;;;;;;;745265;185;919251;-72
2023/08/13 09:45:06;;;;;;;6.13;4.10;;;;;;;;;;745510;184;918254;-71
2023/08/13 09:47:32;;;;;;;4.13;3.40;;;;;;;;;;747554;184;919057;-74
2023/08/13 09:49:58;;;;;;;5.60;3.23;;;;;;;;;;744332;184;820440;-72
2023/08/13 09:52:24;;;;;;;4.73;4.00;;;;;;;;;;745726;184;918791;-73
2023/08/13 09:54:51;;;;;;;5.70;3.80;;;;;;;;;;748743;184;915952;-65
2023/08/13 09:57:16;;;;;;;6.23;3.57;;;;;;;;;;746037;184;908211;-74
2023/08/13 09:59:42;;;;;;;4.97;3.60;;;;;;;;;;745967;184;920787;-73
2023/08/13 10:02:08;;;;;;;6.33;3.50;;;;;;;;;;752577;184;975765;-75
2023/08/13 10:04:34;;;;;;;4.03;3.20;;;;;;;;;;745858;184;923852;-74
2023/08/13 10:07:00;;;;;;;4.80;3.13;;;;;;;;;;748643;184;918369;-75
2023/08/13 10:09:26;;;;;;;6.90;3.43;;;;;;;;;;737837;186;917130;-66
2023/08/13 10:11:51;;;;;;;4.57;2.87;;;;;;;;;;742963;186;903884;-65
2023/08/13 10:14:17;;;;;;;4.57;2.93;;;;;;;;;;747282;183;919744;-71
2023/08/13 10:16:43;;;;;;;4.20;3.47;;;;;;;;;;745889;184;904173;-74
2023/08/13 10:19:09;;;;;;;3.97;3.50;;;;;;;;;;751455;183;895790;-73
2023/08/13 10:21:35;;;;;;;8.10;3.70;;;;;;;;;;742928;185;819627;-66
2023/08/13 10:24:02;;;;;;;5.70;3.73;;;;;;;;;;743388;184;918485;-65
2023/08/13 10:26:27;;;;;;;6.77;3.90;;;;;;;;;;748134;184;974056;-65
2023/08/13 10:28:53;;;;;;;6.77;3.40;;;;;;;;;;745059;183;914836;-65
2023/08/13 10:31:19;;;;;;;6.73;3.60;;;;;;;;;;747252;184;819205;-65
2023/08/13 10:33:45;;;;;;;4.97;3.70;;;;;;;;;;745525;184;903419;-73
2023/08/13 10:36:11;;;;;;;5.90;3.83;;;;;;;;;;743391;186;821202;-72
2023/08/13 10:38:38;;;;;;;5.93;3.60;;;;;;;;;;735787;186;933859;-65
2023/08/13 10:41:03;;;;;;;7.63;3.53;;;;;;;;;;740327;186;919872;-72
2023/08/13 10:43:29;;;;;;;4.47;3.47;;;;;;;;;;738400;187;915154;-65
2023/08/13 10:45:54;;;;;;;5.27;3.40;;;;;;;;;;734914;187;917633;-65
2023/08/13 10:48:26;;;;;;;6.43;3.90;;;;;;;;;;739917;186;917327;-72
2023/08/13 10:50:52;;;;;;;6.32;3.70;;;;;;;;;;740765;186;920132;-70
2023/08/13 10:53:19;;;;;;;5.20;3.60;;;;;;;;;;746031;185;817362;-64
2023/08/13 10:55:47;;;;;;;5.30;3.40;;;;;;;;;;745439;184;919539;-72
2023/08/13 10:58:19;;;;;;;6.07;3.60;;;;;;;;;;745710;185;895168;-71
2023/08/13 11:00:45;;;;;;;4.87;3.50;;;;;;;;;;751699;184;818080;-65
2023/08/13 11:03:14;;;;;;;4.43;3.20;;;;;;;;;;745635;184;816898;-72
2023/08/13 11:05:40;;;;;;;6.67;3.80;;;;;;;;;;748048;185;935539;-64
2023/08/13 11:08:06;;;;;;;6.43;3.53;;;;;;;;;;745833;184;920526;-64
2023/08/13 11:10:33;;;;;;;5.10;3.53;;;;;;;;;;750609;186;919027;-74
2023/08/13 11:12:58;;;;;;;4.93;3.27;;;;;;;;;;747016;183;918215;-65
2023/08/13 11:15:24;;;;;;;4.20;3.40;;;;;;;;;;747975;184;921370;-71
2023/08/13 11:17:50;;;;;;;5.77;3.40;;;;;;;;;;751742;183;810433;-62
2023/08/13 11:20:17;;;;;;;5.57;3.33;;;;;;;;;;743201;184;917746;-73
2023/08/13 11:22:42;;;;;;;7.40;3.40;;;;;;;;;;743283;184;915903;-71
2023/08/13 11:25:08;;;;;;;4.43;3.13;;;;;;;;;;746193;184;917652;-72
2023/08/13 11:27:35;;;;;;;8.07;4.10;;;;;;;;;;749111;185;778758;-71
2023/08/13 11:30:01;;;;;;;10.27;4.17;;;;;;;;;;743645;184;920234;-70
2023/08/13 11:32:27;;;;;;;5.00;3.23;;;;;;;;;;744143;185;837996;-71
2023/08/13 11:34:53;;;;;;;5.90;3.83;;;;;;;;;;749542;185;815791;-70
2023/08/13 11:37:18;;;;;;;7.33;3.90;;;;;;;;;;741869;184;922320;-63
2023/08/13 11:39:44;;;;;;;4.37;3.97;;;;;;;;;;748417;184;916057;-62
2023/08/13 11:42:10;;;;;;;4.47;3.20;;;;;;;;;;750346;183;918563;-70
2023/08/13 11:44:36;;;;;;;4.30;3.43;;;;;;;;;;747201;185;816782;-64
2023/08/13 11:47:04;;;;;;;7.37;3.67;;;;;;;;;;745660;184;919674;-62
2023/08/13 11:49:28;;;;;;;4.43;3.57;;;;;;;;;;746510;185;854483;-64
2023/08/13 11:51:55;;;;;;;6.10;3.00;;;;;;;;;;740703;186;816165;-62
2023/08/13 11:54:20;;;;;;;5.77;4.27;;;;;;;;;;739172;188;915210;-72
2023/08/13 11:56:46;;;;;;;10.20;3.70;;;;;;;;;;740690;188;813977;-69
2023/08/13 11:59:12;;;;;;;6.43;3.43;;;;;;;;;;744512;186;915492;-62
2023/08/13 12:01:38;;;;;;;6.43;3.80;;;;;;;;;;743348;186;917614;-63
2023/08/13 12:04:04;;;;;;;6.27;3.50;;;;;;;;;;742272;186;919239;-71
2023/08/13 12:06:30;;;;;;;6.23;4.10;;;;;;;;;;742265;186;919749;-70
2023/08/13 12:08:56;;;;;;;5.00;3.47;;;;;;;;;;742109;186;920597;-61
2023/08/13 12:11:22;;;;;;;5.77;3.30;;;;;;;;;;735968;186;925029;-62
2023/08/13 12:13:48;;;;;;;4.30;3.40;;;;;;;;;;746702;185;919148;-68
2023/08/13 12:16:14;;;;;;;7.60;3.90;;;;;;;;;;744137;185;919264;-69
2023/08/13 12:18:39;;;;;;;5.67;3.27;;;;;;;;;;741885;185;919395;-62
2023/08/13 12:21:05;;;;;;;13.33;3.87;;;;;;;;;;748479;184;923302;-64
2023/08/13 12:23:31;;;;;;;4.50;3.70;;;;;;;;;;750277;185;919128;-63
2023/08/13 12:25:58;;;;;;;4.35;3.40;;;;;;;;;;747030;185;920087;-63
2023/08/13 12:28:23;;;;;;;6.40;4.10;;;;;;;;;;747139;184;818208;-63
2023/08/13 12:30:49;;;;;;;6.10;3.20;;;;;;;;;;749925;185;907292;-69
2023/08/13 12:33:15;;;;;;;4.60;3.50;;;;;;;;;;746309;185;923093;-63
2023/08/13 12:35:41;;;;;;;5.90;4.27;;;;;;;;;;744127;185;925559;-62
2023/08/13 12:38:06;;;;;;;5.20;3.60;;;;;;;;;;746047;185;817350;-62
2023/08/13 12:40:32;;;;;;;5.83;3.73;;;;;;;;;;733702;186;918373;-69
2023/08/13 12:42:58;;;;;;;4.30;3.23;;;;;;;;;;732489;190;918405;-62
2023/08/13 12:45:24;;;;;;;6.30;3.80;;;;;;;;;;738596;186;919349;-64
2023/08/13 12:47:50;;;;;;;5.20;3.20;;;;;;;;;;743496;186;918660;-63
2023/08/13 12:50:15;;;;;;;5.57;3.63;;;;;;;;;;742075;186;919732;-70
2023/08/13 12:52:41;;;;;;;7.17;3.50;;;;;;;;;;741428;186;886162;-71
2023/08/13 12:55:08;;;;;;;5.77;3.23;;;;;;;;;;755763;184;912264;-62
2023/08/13 12:57:33;;;;;;;10.13;3.70;;;;;;;;;;732889;187;910134;-63
2023/08/13 12:59:59;;;;;;;5.33;3.83;;;;;;;;;;740921;186;922239;-63
2023/08/13 13:02:25;;;;;;;5.23;3.83;;;;;;;;;;745036;188;919075;-63
2023/08/13 13:04:51;;;;;;;6.93;3.47;;;;;;;;;;742889;184;918580;-70
2023/08/13 13:07:16;;;;;;;4.37;3.43;;;;;;;;;;747834;183;910316;-70
2023/08/13 13:09:42;;;;;;;7.30;3.80;;;;;;;;;;748687;184;914069;-69
2023/08/13 13:12:08;;;;;;;12.33;3.87;;;;;;;;;;741313;188;904789;-69
2023/08/13 13:14:34;;;;;;;5.53;3.17;;;;;;;;;;736264;188;922415;-69
2023/08/13 13:17:00;;;;;;;8.03;3.50;;;;;;;;;;738207;186;1023401;-68
2023/08/13 13:19:26;;;;;;;4.00;2.87;;;;;;;;;;747836;185;954616;-69
2023/08/13 13:21:52;;;;;;;6.20;4.17;;;;;;;;;;749110;184;916088;-62
2023/08/13 13:24:17;;;;;;;4.65;3.35;;;;;;;;;;740700;186;914854;-69
2023/08/13 13:26:43;;;;;;;6.90;4.67;;;;;;;;;;745141;188;726299;-68
2023/08/13 13:29:09;;;;;;;5.40;3.50;;;;;;;;;;737764;188;816521;-69
2023/08/13 13:31:35;;;;;;;6.97;3.73;;;;;;;;;;737304;186;1019801;-69
2023/08/13 13:34:01;;;;;;;7.20;3.40;;;;;;;;;;744237;186;920151;-62
2023/08/13 13:36:27;;;;;;;8.10;3.33;;;;;;;;;;739702;187;918390;-62
2023/08/13 13:38:53;;;;;;;7.00;3.30;;;;;;;;;;742500;186;918895;-62
2023/08/13 13:41:19;;;;;;;4.77;3.20;;;;;;;;;;740795;187;917357;-60
2023/08/13 13:43:45;;;;;;;4.47;3.30;;;;;;;;;;748601;185;917422;-71
2023/08/13 13:46:10;;;;;;;4.40;3.70;;;;;;;;;;748193;185;919766;-70
2023/08/13 13:48:36;;;;;;;5.90;4.00;;;;;;;;;;746740;184;1024598;-73
2023/08/13 13:51:02;;;;;;;6.13;2.80;;;;;;;;;;751060;185;823340;-70
2023/08/13 13:53:28;;;;;;;5.80;3.50;;;;;;;;;;743688;185;919548;-64
2023/08/13 13:55:54;;;;;;;4.67;3.53;;;;;;;;;;747533;184;919258;-70
2023/08/13 13:58:20;;;;;;;6.43;3.60;;;;;;;;;;755889;183;629212;-70
2023/08/13 14:00:48;;;;;;;6.03;3.27;;;;;;;;;;748169;184;631338;-64
2023/08/13 14:03:11;;;;;;;7.10;3.40;;;;;;;;;;745654;185;897871;-63
2023/08/13 14:05:37;;;;;;;4.73;3.47;;;;;;;;;;749297;184;634044;-70
2023/08/13 14:08:03;;;;;;;7.07;3.83;;;;;;;;;;751563;185;634165;-71
2023/08/13 14:10:29;;;;;;;5.20;3.57;;;;;;;;;;748711;184;634424;-70
2023/08/13 14:12:55;;;;;;;4.10;3.13;;;;;;;;;;744445;184;924697;-64
2023/08/13 14:15:21;;;;;;;5.13;3.43;;;;;;;;;;755615;184;914341;-70
2023/08/13 14:17:47;;;;;;;7.60;3.60;;;;;;;;;;738394;184;819870;-68
2023/08/13 14:20:12;;;;;;;6.33;3.87;;;;;;;;;;743756;184;918895;-62